sensor_id;sensor_type;location;lat;lon;timestamp;pressure;altitude;pressure_sealevel;temperature;humidity
55217;BME280;41086;46.736;15.666;2022-07-06T00:00:04;98766.84;;;15.05;100.00
55217;BME280;41086;46.736;15.666;2022-07-06T00:02:31;98779.69;;;15.11;100.00
55217;BME280;41086;46.736;15.666;2022-07-06T00:04:58;98775.19;;;15.12;100.00
55217;BME280;41086;46.736;15.666;2022-07-06T00:07:25;98790.84;;;15.16;100.00
55217;BME280;41086;46.736;15.666;2022-07-06T00:09:51;98791.41;;;15.20;100.00
55217;BME280;41086;46.736;15.666;2022-07-06T00:12:18;98791.31;;;15.21;100.00
55217;BME280;41086;46.736;15.666;2022-07-06T00:14:45;98793.72;;;15.24;100.00
55217;BME280;41086;46.736;15.666;2022-07-06T00:17:12;98804.03;;;15.29;100.00
55217;BME280;41086;46.736;15.666;2022-07-06T00:19:39;98790.31;;;15.34;100.00
55217;BME280;41086;46.736;15.666;2022-07-06T00:22:06;98790.72;;;15.39;100.00
55217;BME280;41086;46.736;15.666;2022-07-06T00:24:32;98782.59;;;15.40;100.00
55217;BME280;41086;46.736;15.666;2022-07-06T00:26:59;98781.50;;;15.43;100.00
55217;BME280;41086;46.736;15.666;2022-07-06T00:29:26;98775.31;;;15.42;100.00
55217;BME280;41086;46.736;15.666;2022-07-06T00:31:53;98781.63;;;15.41;100.00
55217;BME280;41086;46.736;15.666;2022-07-06T00:34:19;98786.00;;;15.42;100.00
55217;BME280;41086;46.736;15.666;2022-07-06T00:36:46;98783.06;;;15.45;100.00
55217;BME280;41086;46.736;15.666;2022-07-06T00:39:13;98784.50;;;15.49;100.00
55217;BME280;41086;46.736;15.666;2022-07-06T00:41:40;98783.66;;;15.49;100.00
55217;BME280;41086;46.736;15.666;2022-07-06T00:44:08;98784.06;;;15.44;100.00
55217;BME280;41086;46.736;15.666;2022-07-06T00:46:35;98793.19;;;15.42;100.00
55217;BME280;41086;46.736;15.666;2022-07-06T00:49:02;98787.22;;;15.38;100.00
55217;BME280;41086;46.736;15.666;2022-07-06T00:51:30;98796.34;;;15.36;100.00
55217;BME280;41086;46.736;15.666;2022-07-06T00:54:01;98791.13;;;15.34;100.00
55217;BME280;41086;46.736;15.666;2022-07-06T00:56:30;98790.31;;;15.34;100.00
55217;BME280;41086;46.736;15.666;2022-07-06T00:59:00;98787.84;;;15.30;100.00
55217;BME280;41086;46.736;15.666;2022-07-06T01:01:28;98784.69;;;15.37;100.00
55217;BME280;41086;46.736;15.666;2022-07-06T01:03:55;98785.41;;;15.39;100.00
55217;BME280;41086;46.736;15.666;2022-07-06T01:06:22;98797.66;;;15.41;100.00
55217;BME280;41086;46.736;15.666;2022-07-06T01:08:49;98785.41;;;15.39;100.00
55217;BME280;41086;46.736;15.666;2022-07-06T01:11:16;98785.53;;;15.37;100.00
55217;BME280;41086;46.736;15.666;2022-07-06T01:13:45;98781.41;;;15.33;100.00
55217;BME280;41086;46.736;15.666;2022-07-06T01:16:13;98797.69;;;15.30;100.00
55217;BME280;41086;46.736;15.666;2022-07-06T01:18:42;98799.78;;;15.26;100.00
55217;BME280;41086;46.736;15.666;2022-07-06T01:21:11;98795.44;;;15.25;100.00
55217;BME280;41086;46.736;15.666;2022-07-06T01:23:42;98795.44;;;15.25;100.00
55217;BME280;41086;46.736;15.666;2022-07-06T01:26:11;98797.22;;;15.25;100.00
55217;BME280;41086;46.736;15.666;2022-07-06T01:28:39;98792.88;;;15.24;100.00
55217;BME280;41086;46.736;15.666;2022-07-06T01:31:14;98794.56;;;15.25;100.00
55217;BME280;41086;46.736;15.666;2022-07-06T01:33:41;98797.22;;;15.25;100.00
55217;BME280;41086;46.736;15.666;2022-07-06T01:36:09;98798.22;;;15.24;100.00
55217;BME280;41086;46.736;15.666;2022-07-06T01:38:48;98798.47;;;15.21;100.00
55217;BME280;41086;46.736;15.666;2022-07-06T01:41:17;98801.25;;;15.19;100.00
55217;BME280;41086;46.736;15.666;2022-07-06T01:43:44;98787.91;;;15.19;100.00
55217;BME280;41086;46.736;15.666;2022-07-06T01:46:12;98789.00;;;15.17;100.00
55217;BME280;41086;46.736;15.666;2022-07-06T01:48:39;98810.25;;;15.18;100.00
55217;BME280;41086;46.736;15.666;2022-07-06T01:51:06;98797.88;;;15.17;100.00
55217;BME280;41086;46.736;15.666;2022-07-06T01:53:34;98802.59;;;15.14;100.00
55217;BME280;41086;46.736;15.666;2022-07-06T01:56:02;98804.69;;;15.10;100.00
55217;BME280;41086;46.736;15.666;2022-07-06T01:58:29;98809.19;;;15.10;100.00
55217;BME280;41086;46.736;15.666;2022-07-06T02:00:55;98798.16;;;15.03;100.00
55217;BME280;41086;46.736;15.666;2022-07-06T02:03:22;98798.78;;;15.06;100.00
55217;BME280;41086;46.736;15.666;2022-07-06T02:05:49;98805.53;;;15.11;100.00
55217;BME280;41086;46.736;15.666;2022-07-06T02:08:16;98804.94;;;15.07;100.00
55217;BME280;41086;46.736;15.666;2022-07-06T02:10:43;98816.03;;;14.91;100.00
55217;BME280;41086;46.736;15.666;2022-07-06T02:13:10;98811.31;;;14.72;100.00
55217;BME280;41086;46.736;15.666;2022-07-06T02:15:37;98811.19;;;14.62;100.00
55217;BME280;41086;46.736;15.666;2022-07-06T02:18:05;98802.59;;;14.59;100.00
55217;BME280;41086;46.736;15.666;2022-07-06T02:20:31;98800.78;;;14.59;100.00
55217;BME280;41086;46.736;15.666;2022-07-06T02:22:58;98804.44;;;14.58;100.00
55217;BME280;41086;46.736;15.666;2022-07-06T02:25:25;98803.09;;;14.53;100.00
55217;BME280;41086;46.736;15.666;2022-07-06T02:27:52;98813.78;;;14.53;100.00
55217;BME280;41086;46.736;15.666;2022-07-06T02:30:20;98799.91;;;14.48;100.00
55217;BME280;41086;46.736;15.666;2022-07-06T02:32:46;98813.09;;;14.49;100.00
55217;BME280;41086;46.736;15.666;2022-07-06T02:35:14;98810.34;;;14.39;100.00
55217;BME280;41086;46.736;15.666;2022-07-06T02:37:42;98817.59;;;14.37;100.00
55217;BME280;41086;46.736;15.666;2022-07-06T02:40:10;98817.00;;;14.34;100.00
55217;BME280;41086;46.736;15.666;2022-07-06T02:42:37;98809.84;;;14.34;100.00
55217;BME280;41086;46.736;15.666;2022-07-06T02:45:07;98801.75;;;14.36;100.00
55217;BME280;41086;46.736;15.666;2022-07-06T02:47:34;98798.44;;;14.32;100.00
55217;BME280;41086;46.736;15.666;2022-07-06T02:50:02;98808.16;;;14.33;100.00
55217;BME280;41086;46.736;15.666;2022-07-06T02:52:29;98812.16;;;14.39;100.00
55217;BME280;41086;46.736;15.666;2022-07-06T02:55:01;98814.84;;;14.39;100.00
55217;BME280;41086;46.736;15.666;2022-07-06T02:57:28;98826.44;;;14.38;100.00
55217;BME280;41086;46.736;15.666;2022-07-06T02:59:56;98826.69;;;14.35;100.00
55217;BME280;41086;46.736;15.666;2022-07-06T03:02:22;98829.34;;;14.35;100.00
55217;BME280;41086;46.736;15.666;2022-07-06T03:04:50;98821.72;;;14.30;100.00
55217;BME280;41086;46.736;15.666;2022-07-06T03:07:17;98828.03;;;14.29;100.00
55217;BME280;41086;46.736;15.666;2022-07-06T03:09:45;98831.69;;;14.28;100.00
55217;BME280;41086;46.736;15.666;2022-07-06T03:12:12;98825.59;;;14.26;100.00
55217;BME280;41086;46.736;15.666;2022-07-06T03:14:39;98830.09;;;14.26;100.00
55217;BME280;41086;46.736;15.666;2022-07-06T03:17:06;98830.09;;;14.26;100.00
55217;BME280;41086;46.736;15.666;2022-07-06T03:19:33;98822.09;;;14.26;100.00
55217;BME280;41086;46.736;15.666;2022-07-06T03:22:02;98804.75;;;14.20;100.00
55217;BME280;41086;46.736;15.666;2022-07-06T03:24:29;98811.78;;;14.32;100.00
55217;BME280;41086;46.736;15.666;2022-07-06T03:26:56;98813.38;;;14.35;100.00
55217;BME280;41086;46.736;15.666;2022-07-06T03:29:23;98812.41;;;14.36;100.00
55217;BME280;41086;46.736;15.666;2022-07-06T03:31:50;98821.00;;;14.39;100.00
55217;BME280;41086;46.736;15.666;2022-07-06T03:34:17;98813.13;;;14.38;100.00
55217;BME280;41086;46.736;15.666;2022-07-06T03:36:44;98820.75;;;14.31;100.00
55217;BME280;41086;46.736;15.666;2022-07-06T03:39:11;98817.25;;;14.19;100.00
55217;BME280;41086;46.736;15.666;2022-07-06T03:41:38;98823.78;;;14.15;100.00
55217;BME280;41086;46.736;15.666;2022-07-06T03:44:07;98824.25;;;14.09;100.00
55217;BME280;41086;46.736;15.666;2022-07-06T03:46:34;98823.78;;;14.15;100.00
55217;BME280;41086;46.736;15.666;2022-07-06T03:49:02;98826.34;;;14.17;100.00
55217;BME280;41086;46.736;15.666;2022-07-06T03:51:29;98828.63;;;14.22;100.00
55217;BME280;41086;46.736;15.666;2022-07-06T03:53:56;98823.66;;;14.17;100.00
55217;BME280;41086;46.736;15.666;2022-07-06T03:56:23;98825.00;;;14.11;100.00
55217;BME280;41086;46.736;15.666;2022-07-06T03:59:02;98822.34;;;14.11;100.00
55217;BME280;41086;46.736;15.666;2022-07-06T04:01:32;98815.03;;;14.13;100.00
55217;BME280;41086;46.736;15.666;2022-07-06T04:04:00;98811.03;;;14.19;100.00
55217;BME280;41086;46.736;15.666;2022-07-06T04:06:28;98809.00;;;14.23;100.00
55217;BME280;41086;46.736;15.666;2022-07-06T04:08:57;98810.22;;;14.30;100.00
55217;BME280;41086;46.736;15.666;2022-07-06T04:11:24;98813.13;;;14.38;100.00
55217;BME280;41086;46.736;15.666;2022-07-06T04:13:51;98811.44;;;14.48;100.00
55217;BME280;41086;46.736;15.666;2022-07-06T04:16:18;98793.88;;;14.57;100.00
55217;BME280;41086;46.736;15.666;2022-07-06T04:18:45;98802.47;;;14.72;100.00
55217;BME280;41086;46.736;15.666;2022-07-06T04:21:12;98797.97;;;14.83;100.00
55217;BME280;41086;46.736;15.666;2022-07-06T04:23:39;98799.03;;;14.92;100.00
55217;BME280;41086;46.736;15.666;2022-07-06T04:26:08;98795.75;;;15.00;100.00
55217;BME280;41086;46.736;15.666;2022-07-06T04:28:37;98790.88;;;15.05;100.00
55217;BME280;41086;46.736;15.666;2022-07-06T04:31:04;98796.31;;;15.15;100.00
55217;BME280;41086;46.736;15.666;2022-07-06T04:33:31;98804.97;;;15.28;100.00
55217;BME280;41086;46.736;15.666;2022-07-06T04:35:58;98807.53;;;15.29;100.00
55217;BME280;41086;46.736;15.666;2022-07-06T04:38:33;98805.06;;;15.38;100.00
55217;BME280;41086;46.736;15.666;2022-07-06T04:41:04;98810.78;;;15.44;100.00
55217;BME280;41086;46.736;15.666;2022-07-06T04:43:32;98805.16;;;15.47;100.00
55217;BME280;41086;46.736;15.666;2022-07-06T04:45:59;98813.13;;;15.59;100.00
55217;BME280;41086;46.736;15.666;2022-07-06T04:48:29;98804.00;;;15.61;100.00
55217;BME280;41086;46.736;15.666;2022-07-06T04:50:59;98812.59;;;15.65;100.00
55217;BME280;41086;46.736;15.666;2022-07-06T04:53:27;98813.94;;;15.70;100.00
55217;BME280;41086;46.736;15.666;2022-07-06T04:55:55;98814.03;;;15.80;100.00
55217;BME280;41086;46.736;15.666;2022-07-06T04:58:23;98807.16;;;15.87;100.00
55217;BME280;41086;46.736;15.666;2022-07-06T05:00:51;98804.56;;;15.97;100.00
55217;BME280;41086;46.736;15.666;2022-07-06T05:03:18;98811.47;;;16.00;100.00
55217;BME280;41086;46.736;15.666;2022-07-06T05:05:45;98820.13;;;16.13;100.00
55217;BME280;41086;46.736;15.666;2022-07-06T05:08:12;98823.94;;;16.20;100.00
55217;BME280;41086;46.736;15.666;2022-07-06T05:10:40;98820.22;;;16.32;100.00
55217;BME280;41086;46.736;15.666;2022-07-06T05:13:07;98819.22;;;16.33;100.00
55217;BME280;41086;46.736;15.666;2022-07-06T05:15:34;98823.91;;;16.41;100.00
55217;BME280;41086;46.736;15.666;2022-07-06T05:18:01;98811.38;;;16.42;100.00
55217;BME280;41086;46.736;15.666;2022-07-06T05:20:28;98823.66;;;16.44;100.00
55217;BME280;41086;46.736;15.666;2022-07-06T05:22:56;98823.09;;;16.40;100.00
55217;BME280;41086;46.736;15.666;2022-07-06T05:25:27;98822.34;;;16.38;100.00
55217;BME280;41086;46.736;15.666;2022-07-06T05:27:55;98826.03;;;16.37;100.00
55217;BME280;41086;46.736;15.666;2022-07-06T05:30:22;98827.72;;;16.38;100.00
55217;BME280;41086;46.736;15.666;2022-07-06T05:32:49;98829.25;;;16.31;100.00
55217;BME280;41086;46.736;15.666;2022-07-06T05:35:16;98837.13;;;16.33;100.00
55217;BME280;41086;46.736;15.666;2022-07-06T05:38:05;98835.56;;;16.30;100.00
55217;BME280;41086;46.736;15.666;2022-07-06T05:40:32;98840.19;;;16.28;100.00
55217;BME280;41086;46.736;15.666;2022-07-06T05:43:00;98843.13;;;16.25;100.00
55217;BME280;41086;46.736;15.666;2022-07-06T05:45:26;98851.41;;;16.22;100.00
55217;BME280;41086;46.736;15.666;2022-07-06T05:47:55;98858.03;;;16.18;100.00
55217;BME280;41086;46.736;15.666;2022-07-06T05:50:40;98850.84;;;16.18;100.00
55217;BME280;41086;46.736;15.666;2022-07-06T05:53:07;98860.47;;;16.31;100.00
55217;BME280;41086;46.736;15.666;2022-07-06T05:55:47;98852.69;;;16.49;100.00
55217;BME280;41086;46.736;15.666;2022-07-06T05:58:14;98860.06;;;16.66;100.00
55217;BME280;41086;46.736;15.666;2022-07-06T06:00:43;98863.84;;;16.84;100.00
55217;BME280;41086;46.736;15.666;2022-07-06T06:03:14;98866.28;;;16.97;100.00
55217;BME280;41086;46.736;15.666;2022-07-06T06:05:44;98872.09;;;17.12;100.00
55217;BME280;41086;46.736;15.666;2022-07-06T06:08:13;98878.31;;;17.22;100.00
55217;BME280;41086;46.736;15.666;2022-07-06T06:10:39;98877.78;;;17.38;100.00
55217;BME280;41086;46.736;15.666;2022-07-06T06:13:10;98876.66;;;17.50;100.00
55217;BME280;41086;46.736;15.666;2022-07-06T06:15:38;98865.53;;;17.55;100.00
55217;BME280;41086;46.736;15.666;2022-07-06T06:18:05;98852.16;;;17.65;100.00
55217;BME280;41086;46.736;15.666;2022-07-06T06:20:32;98860.75;;;17.78;100.00
55217;BME280;41086;46.736;15.666;2022-07-06T06:22:59;98858.22;;;17.96;100.00
55217;BME280;41086;46.736;15.666;2022-07-06T06:25:29;98865.69;;;18.12;100.00
55217;BME280;41086;46.736;15.666;2022-07-06T06:27:56;98862.13;;;18.21;100.00
55217;BME280;41086;46.736;15.666;2022-07-06T06:30:24;98853.94;;;18.32;100.00
55217;BME280;41086;46.736;15.666;2022-07-06T06:32:52;98863.06;;;18.39;100.00
55217;BME280;41086;46.736;15.666;2022-07-06T06:35:18;98864.75;;;18.50;100.00
55217;BME280;41086;46.736;15.666;2022-07-06T06:37:45;98861.00;;;18.71;100.00
55217;BME280;41086;46.736;15.666;2022-07-06T06:40:12;98865.91;;;18.85;100.00
55217;BME280;41086;46.736;15.666;2022-07-06T06:42:39;98859.72;;;19.02;100.00
55217;BME280;41086;46.736;15.666;2022-07-06T06:45:10;98857.31;;;19.09;100.00
55217;BME280;41086;46.736;15.666;2022-07-06T06:47:37;98857.31;;;19.27;100.00
55217;BME280;41086;46.736;15.666;2022-07-06T06:50:04;98857.53;;;19.43;100.00
55217;BME280;41086;46.736;15.666;2022-07-06T06:52:31;98852.06;;;19.53;100.00
55217;BME280;41086;46.736;15.666;2022-07-06T06:55:07;98853.25;;;19.68;100.00
55217;BME280;41086;46.736;15.666;2022-07-06T06:57:34;98849.25;;;19.90;100.00
55217;BME280;41086;46.736;15.666;2022-07-06T07:00:02;98839.06;;;20.02;100.00
55217;BME280;41086;46.736;15.666;2022-07-06T07:02:28;98849.94;;;20.19;100.00
55217;BME280;41086;46.736;15.666;2022-07-06T07:04:55;98841.22;;;20.25;100.00
55217;BME280;41086;46.736;15.666;2022-07-06T07:07:22;98846.91;;;20.40;100.00
55217;BME280;41086;46.736;15.666;2022-07-06T07:09:49;98845.59;;;20.52;100.00
55217;BME280;41086;46.736;15.666;2022-07-06T07:12:16;98840.50;;;20.67;100.00
55217;BME280;41086;46.736;15.666;2022-07-06T07:14:44;98840.41;;;20.76;100.00
55217;BME280;41086;46.736;15.666;2022-07-06T07:17:11;98843.44;;;20.81;99.76
55217;BME280;41086;46.736;15.666;2022-07-06T07:19:38;98837.44;;;20.96;100.00
55217;BME280;41086;46.736;15.666;2022-07-06T07:22:05;98837.16;;;21.07;100.00
55217;BME280;41086;46.736;15.666;2022-07-06T07:24:32;98842.22;;;21.18;100.00
55217;BME280;41086;46.736;15.666;2022-07-06T07:26:59;98842.16;;;21.44;100.00
55217;BME280;41086;46.736;15.666;2022-07-06T07:29:26;98841.84;;;21.64;99.87
55217;BME280;41086;46.736;15.666;2022-07-06T07:31:52;98836.13;;;21.83;100.00
55217;BME280;41086;46.736;15.666;2022-07-06T07:34:19;98842.00;;;22.03;99.76
55217;BME280;41086;46.736;15.666;2022-07-06T07:36:46;98837.66;;;22.19;95.39
55217;BME280;41086;46.736;15.666;2022-07-06T07:39:13;98833.41;;;22.16;94.44
55217;BME280;41086;46.736;15.666;2022-07-06T07:41:39;98836.25;;;22.14;87.29
55217;BME280;41086;46.736;15.666;2022-07-06T07:44:06;98833.59;;;22.23;95.20
55217;BME280;41086;46.736;15.666;2022-07-06T07:46:33;98836.44;;;22.13;94.39
55217;BME280;41086;46.736;15.666;2022-07-06T07:49:00;98831.91;;;22.22;89.06
55217;BME280;41086;46.736;15.666;2022-07-06T07:51:28;98834.91;;;22.35;90.28
55217;BME280;41086;46.736;15.666;2022-07-06T07:53:55;98838.56;;;22.67;87.16
55217;BME280;41086;46.736;15.666;2022-07-06T07:56:22;98840.50;;;22.97;87.52
55217;BME280;41086;46.736;15.666;2022-07-06T07:58:49;98835.13;;;23.20;86.51
55217;BME280;41086;46.736;15.666;2022-07-06T08:01:20;98842.56;;;23.50;92.71
55217;BME280;41086;46.736;15.666;2022-07-06T08:03:47;98843.84;;;23.62;85.27
55217;BME280;41086;46.736;15.666;2022-07-06T08:06:14;98818.94;;;23.66;87.42
55217;BME280;41086;46.736;15.666;2022-07-06T08:08:40;98833.56;;;24.03;84.74
55217;BME280;41086;46.736;15.666;2022-07-06T08:11:07;98830.13;;;24.09;85.59
55217;BME280;41086;46.736;15.666;2022-07-06T08:13:44;98826.72;;;24.45;87.98
55217;BME280;41086;46.736;15.666;2022-07-06T08:16:11;98823.31;;;24.81;89.14
55217;BME280;41086;46.736;15.666;2022-07-06T08:18:38;98829.22;;;25.36;85.93
55217;BME280;41086;46.736;15.666;2022-07-06T08:21:05;98831.38;;;25.83;78.21
55217;BME280;41086;46.736;15.666;2022-07-06T08:23:53;98834.19;;;26.18;73.27
55217;BME280;41086;46.736;15.666;2022-07-06T08:26:20;98829.25;;;26.28;75.68
55217;BME280;41086;46.736;15.666;2022-07-06T08:28:47;98836.00;;;26.39;69.30
55217;BME280;41086;46.736;15.666;2022-07-06T08:31:14;98844.00;;;26.47;73.91
55217;BME280;41086;46.736;15.666;2022-07-06T08:34:02;98835.25;;;25.96;72.36
55217;BME280;41086;46.736;15.666;2022-07-06T08:36:29;98828.09;;;25.88;70.38
55217;BME280;41086;46.736;15.666;2022-07-06T08:38:56;98832.97;;;25.99;78.49
55217;BME280;41086;46.736;15.666;2022-07-06T08:41:26;98824.06;;;25.62;73.92
55217;BME280;41086;46.736;15.666;2022-07-06T08:43:55;98833.38;;;25.96;73.96
55217;BME280;41086;46.736;15.666;2022-07-06T08:46:22;98837.41;;;26.00;70.08
55217;BME280;41086;46.736;15.666;2022-07-06T08:48:49;98829.59;;;26.47;63.30
55217;BME280;41086;46.736;15.666;2022-07-06T08:51:19;98833.19;;;26.82;62.42
55217;BME280;41086;46.736;15.666;2022-07-06T08:53:53;98828.34;;;26.84;58.31
55217;BME280;41086;46.736;15.666;2022-07-06T08:56:21;98831.06;;;26.78;58.15
55217;BME280;41086;46.736;15.666;2022-07-06T08:58:48;98835.97;;;27.02;63.33
55217;BME280;41086;46.736;15.666;2022-07-06T09:01:16;98834.47;;;27.34;59.94
55217;BME280;41086;46.736;15.666;2022-07-06T09:03:45;98836.19;;;27.62;56.51
55217;BME280;41086;46.736;15.666;2022-07-06T09:06:16;98830.22;;;27.93;59.04
55217;BME280;41086;46.736;15.666;2022-07-06T09:08:47;98830.41;;;28.25;53.98
55217;BME280;41086;46.736;15.666;2022-07-06T09:11:15;98817.19;;;28.62;48.53
55217;BME280;41086;46.736;15.666;2022-07-06T09:13:42;98831.09;;;28.99;49.59
55217;BME280;41086;46.736;15.666;2022-07-06T09:16:14;98827.47;;;29.25;43.68
55217;BME280;41086;46.736;15.666;2022-07-06T09:19:01;98822.06;;;29.50;43.18
55217;BME280;41086;46.736;15.666;2022-07-06T09:21:30;98810.25;;;29.63;45.03
55217;BME280;41086;46.736;15.666;2022-07-06T09:24:05;98816.00;;;29.86;45.86
55217;BME280;41086;46.736;15.666;2022-07-06T09:26:32;98819.22;;;30.01;43.68
55217;BME280;41086;46.736;15.666;2022-07-06T09:29:00;98821.38;;;30.24;43.66
55217;BME280;41086;46.736;15.666;2022-07-06T09:31:27;98813.88;;;30.38;44.73
55217;BME280;41086;46.736;15.666;2022-07-06T09:33:59;98815.88;;;30.50;46.27
55217;BME280;41086;46.736;15.666;2022-07-06T09:39:21;98811.97;;;28.14;41.23
55217;BME280;41086;46.736;15.666;2022-07-06T09:41:53;98806.03;;;27.57;45.84
55217;BME280;41086;46.736;15.666;2022-07-06T09:44:28;98807.06;;;27.43;45.72
55217;BME280;41086;46.736;15.666;2022-07-06T09:47:00;98812.81;;;27.13;46.08
55217;BME280;41086;46.736;15.666;2022-07-06T09:49:27;98808.47;;;27.18;45.18
55217;BME280;41086;46.736;15.666;2022-07-06T09:51:57;98803.59;;;27.14;44.16
55217;BME280;41086;46.736;15.666;2022-07-06T09:54:25;98800.03;;;27.07;42.05
55217;BME280;41086;46.736;15.666;2022-07-06T09:56:53;98809.19;;;27.67;41.04
55217;BME280;41086;46.736;15.666;2022-07-06T09:59:23;98807.44;;;27.33;42.80
55217;BME280;41086;46.736;15.666;2022-07-06T10:01:58;98807.75;;;27.78;43.71
55217;BME280;41086;46.736;15.666;2022-07-06T10:04:27;98803.38;;;28.50;39.48
55217;BME280;41086;46.736;15.666;2022-07-06T10:06:55;98806.38;;;28.93;40.17
55217;BME280;41086;46.736;15.666;2022-07-06T10:09:24;98809.41;;;29.62;38.36
55217;BME280;41086;46.736;15.666;2022-07-06T10:12:02;98808.63;;;30.37;39.50
55217;BME280;41086;46.736;15.666;2022-07-06T10:14:32;98811.09;;;30.63;42.30
55217;BME280;41086;46.736;15.666;2022-07-06T10:17:01;98821.25;;;30.38;39.80
55217;BME280;41086;46.736;15.666;2022-07-06T10:19:30;98809.41;;;30.44;38.67
55217;BME280;41086;46.736;15.666;2022-07-06T10:22:00;98807.06;;;30.47;40.14
55217;BME280;41086;46.736;15.666;2022-07-06T10:24:28;98803.88;;;30.69;37.59
55217;BME280;41086;46.736;15.666;2022-07-06T10:26:55;98805.97;;;30.92;38.66
55217;BME280;41086;46.736;15.666;2022-07-06T10:29:24;98799.63;;;30.04;34.26
55217;BME280;41086;46.736;15.666;2022-07-06T10:31:52;98803.94;;;29.62;37.47
55217;BME280;41086;46.736;15.666;2022-07-06T10:34:20;98797.63;;;29.30;39.60
55217;BME280;41086;46.736;15.666;2022-07-06T10:36:52;98809.75;;;29.41;40.62
55217;BME280;41086;46.736;15.666;2022-07-06T10:39:42;98809.50;;;29.10;36.62
55217;BME280;41086;46.736;15.666;2022-07-06T10:42:45;98803.59;;;28.09;35.21
55217;BME280;41086;46.736;15.666;2022-07-06T10:50:49;98793.06;;;27.52;32.10
55217;BME280;41086;46.736;15.666;2022-07-06T10:53:27;98792.44;;;27.63;31.18
55217;BME280;41086;46.736;15.666;2022-07-06T10:55:56;98789.94;;;27.75;34.66
55217;BME280;41086;46.736;15.666;2022-07-06T10:58:48;98781.81;;;27.89;32.94
55217;BME280;41086;46.736;15.666;2022-07-06T11:01:18;98783.25;;;28.24;31.76
55217;BME280;41086;46.736;15.666;2022-07-06T11:04:12;98792.88;;;29.19;35.28
55217;BME280;41086;46.736;15.666;2022-07-06T11:06:38;98779.31;;;29.75;38.25
55217;BME280;41086;46.736;15.666;2022-07-06T11:09:10;98780.31;;;30.31;34.12
55217;BME280;41086;46.736;15.666;2022-07-06T11:11:42;98776.97;;;30.47;29.85
55217;BME280;41086;46.736;15.666;2022-07-06T11:16:59;98780.84;;;30.77;27.92
55217;BME280;41086;46.736;15.666;2022-07-06T11:19:28;98784.16;;;29.73;29.41
55217;BME280;41086;46.736;15.666;2022-07-06T11:21:57;98788.28;;;30.33;36.47
55217;BME280;41086;46.736;15.666;2022-07-06T11:24:27;98777.69;;;29.68;32.37
55217;BME280;41086;46.736;15.666;2022-07-06T11:26:56;98782.22;;;29.42;32.73
55217;BME280;41086;46.736;15.666;2022-07-06T11:29:25;98782.66;;;30.02;35.01
55217;BME280;41086;46.736;15.666;2022-07-06T11:31:55;98780.53;;;30.48;29.05
55217;BME280;41086;46.736;15.666;2022-07-06T11:34:25;98776.47;;;30.94;33.20
55217;BME280;41086;46.736;15.666;2022-07-06T11:39:30;98776.59;;;30.44;28.37
55217;BME280;41086;46.736;15.666;2022-07-06T11:41:58;98779.81;;;30.59;33.75
55217;BME280;41086;46.736;15.666;2022-07-06T11:44:25;98777.56;;;31.23;30.78
55217;BME280;41086;46.736;15.666;2022-07-06T11:46:52;98775.00;;;31.10;30.51
55217;BME280;41086;46.736;15.666;2022-07-06T11:49:19;98770.31;;;30.62;28.16
55217;BME280;41086;46.736;15.666;2022-07-06T11:51:46;98779.06;;;30.02;30.95
55217;BME280;41086;46.736;15.666;2022-07-06T11:54:16;98760.19;;;30.25;30.43
55217;BME280;41086;46.736;15.666;2022-07-06T11:56:57;98763.09;;;30.49;29.61
55217;BME280;41086;46.736;15.666;2022-07-06T11:59:32;98765.06;;;29.35;32.61
55217;BME280;41086;46.736;15.666;2022-07-06T12:04:34;98757.81;;;30.04;30.83
55217;BME280;41086;46.736;15.666;2022-07-06T12:07:04;98748.50;;;30.12;31.11
55217;BME280;41086;46.736;15.666;2022-07-06T12:09:32;98760.00;;;29.95;29.83
55217;BME280;41086;46.736;15.666;2022-07-06T12:11:58;98751.38;;;30.60;34.22
55217;BME280;41086;46.736;15.666;2022-07-06T12:14:32;98760.16;;;31.18;30.60
55217;BME280;41086;46.736;15.666;2022-07-06T12:19:31;98762.88;;;31.90;29.61
55217;BME280;41086;46.736;15.666;2022-07-06T12:21:58;98755.84;;;31.82;29.33
55217;BME280;41086;46.736;15.666;2022-07-06T12:24:26;98759.88;;;31.07;27.53
55217;BME280;41086;46.736;15.666;2022-07-06T12:26:54;98759.22;;;30.38;29.65
55217;BME280;41086;46.736;15.666;2022-07-06T12:29:22;98759.38;;;30.43;30.66
55217;BME280;41086;46.736;15.666;2022-07-06T12:31:56;98753.34;;;31.08;31.30
55217;BME280;41086;46.736;15.666;2022-07-06T12:34:27;98754.53;;;31.85;34.63
55217;BME280;41086;46.736;15.666;2022-07-06T12:36:58;98752.97;;;31.77;33.92
55217;BME280;41086;46.736;15.666;2022-07-06T12:39:41;98745.34;;;31.79;28.28
55217;BME280;41086;46.736;15.666;2022-07-06T12:42:08;98744.56;;;31.48;27.25
55217;BME280;41086;46.736;15.666;2022-07-06T12:44:46;98740.81;;;31.73;27.36
55217;BME280;41086;46.736;15.666;2022-07-06T12:47:17;98745.16;;;31.92;29.17
55217;BME280;41086;46.736;15.666;2022-07-06T12:49:44;98739.69;;;32.28;32.00
55217;BME280;41086;46.736;15.666;2022-07-06T12:52:15;98743.06;;;32.70;31.45
55217;BME280;41086;46.736;15.666;2022-07-06T12:54:49;98743.34;;;32.97;25.93
55217;BME280;41086;46.736;15.666;2022-07-06T12:57:18;98738.84;;;32.51;26.20
55217;BME280;41086;46.736;15.666;2022-07-06T12:59:48;98740.09;;;30.57;29.07
55217;BME280;41086;46.736;15.666;2022-07-06T13:02:33;98732.84;;;31.83;28.25
55217;BME280;41086;46.736;15.666;2022-07-06T13:05:25;98731.72;;;30.70;32.51
55217;BME280;41086;46.736;15.666;2022-07-06T13:07:56;98730.34;;;30.98;35.35
55217;BME280;41086;46.736;15.666;2022-07-06T13:10:24;98722.44;;;31.50;31.05
55217;BME280;41086;46.736;15.666;2022-07-06T13:12:51;98727.22;;;31.66;28.43